.
WxDataArchive / Data Records for 2011-10-03
2011-10-02 October 2011 2011-10-04

Data Records for Monday, 03 October 2011

Time	Temp	Chill	HIndex	Humid	Dewpt	 Wind 	HiWind	WindDir	Rain 	Barom 
-----	----	-----	------	-----	-----	------	------	-------	-----	----- 
00:00	47.1	47.1	47.1	70	37.8	0	1	270	0.00	30.120 
00:05	47.1	47.1	47.1	71	38.2	0	1	270	0.00	30.120 
00:10	47.0	47.0	47.0	71	38.1	0	1	270	0.00	30.120 
00:15	46.8	46.8	46.8	71	37.9	0	1	270	0.00	30.116 
00:20	46.8	46.8	46.8	71	37.9	0	1	270	0.00	30.116 
00:25	46.8	46.8	46.8	71	37.9	0	1	270	0.00	30.116 
00:30	46.8	46.8	46.8	71	37.9	0	1	270	0.00	30.107 
00:35	46.7	46.7	46.7	71	37.8	0	1	270	0.00	30.107 
00:40	46.7	46.7	46.7	71	37.8	0	1	270	0.00	30.107 
00:45	46.5	46.5	46.5	72	38.0	0	1	270	0.00	30.102 
00:50	46.5	46.5	46.5	72	38.0	0	1	270	0.00	30.102 
00:55	46.5	46.5	46.5	72	38.0	0	1	270	0.00	30.102 
01:00	46.4	46.4	46.4	72	37.9	0	1	270	0.00	30.098 
01:05	46.4	46.4	46.4	72	37.9	0	1	270	0.00	30.098 
01:10	46.4	46.4	46.4	73	38.2	0	1	270	0.00	30.098 
01:15	46.4	46.4	46.4	72	37.9	0	1	270	0.00	30.102 
01:20	46.4	46.4	46.4	72	37.9	0	1	270	0.00	30.102 
01:25	46.4	46.4	46.4	72	37.9	0	1	270	0.00	30.102 
01:30	46.4	46.4	46.4	72	37.9	0	1	270	0.00	30.096 
01:35	46.4	46.4	46.4	73	38.2	0	1	270	0.00	30.096 
01:40	46.2	46.2	46.2	73	38.0	0	0	---	0.00	30.096 
01:45	46.1	46.1	46.1	73	37.9	0	0	---	0.00	30.105 
01:50	45.8	45.8	45.8	73	37.6	0	0	---	0.00	30.105 
01:55	45.7	45.7	45.7	74	37.9	0	0	---	0.00	30.105 
02:00	45.5	45.5	45.5	75	38.0	0	0	---	0.00	30.103 
02:05	45.2	45.2	45.2	76	38.1	0	0	---	0.00	30.103 
02:10	45.1	45.1	45.1	76	38.0	0	0	---	0.00	30.103 
02:15	44.8	44.8	44.8	77	38.0	0	0	---	0.00	30.113 
02:20	44.6	44.6	44.6	77	37.8	0	0	---	0.00	30.113 
02:25	44.5	44.5	44.5	78	38.1	0	0	---	0.00	30.113 
02:30	44.3	44.3	44.3	78	37.9	0	0	---	0.00	30.128 
02:35	44.2	44.2	44.2	79	38.1	0	0	---	0.00	30.128 
02:40	44.1	44.1	44.1	79	38.0	0	0	---	0.00	30.128 
02:45	44.1	44.1	44.1	80	38.3	0	0	---	0.00	30.124 
02:50	43.9	43.9	43.9	80	38.1	0	0	---	0.00	30.124 
02:55	43.9	43.9	43.9	80	38.1	0	0	---	0.00	30.124 
03:00	43.8	43.8	43.8	80	38.0	0	0	---	0.00	30.112 
03:05	43.6	43.6	43.6	81	38.2	0	0	---	0.00	30.112 
03:10	43.5	43.5	43.5	81	38.1	0	0	---	0.00	30.112 
03:15	43.5	43.5	43.5	81	38.1	0	1	270	0.00	30.096 
03:20	43.3	43.3	43.3	81	37.9	0	0	---	0.00	30.096 
03:25	43.3	43.3	43.3	82	38.2	0	0	---	0.00	30.096 
03:30	43.2	43.2	43.2	82	38.1	0	1	270	0.00	30.086 
03:35	43.1	43.1	43.1	82	38.0	0	0	---	0.00	30.086 
03:40	43.1	43.1	43.1	83	38.3	0	0	---	0.00	30.086 
03:45	43.1	43.1	43.1	83	38.3	0	0	---	0.00	30.099 
03:50	42.9	42.9	42.9	84	38.4	0	0	---	0.00	30.099 
03:55	43.1	43.1	43.1	84	38.6	0	1	270	0.00	30.099 
04:00	43.2	43.2	43.2	83	38.4	0	1	270	0.00	30.098 
04:05	43.2	43.2	43.2	83	38.4	0	0	---	0.00	30.098 
04:10	43.1	43.1	43.1	83	38.3	0	0	---	0.00	30.098 
04:15	43.1	43.1	43.1	83	38.3	0	1	270	0.00	30.101 
04:20	42.9	42.9	42.9	83	38.1	0	0	---	0.00	30.101 
04:25	42.8	42.8	42.8	84	38.3	0	1	270	0.00	30.101 
04:30	42.8	42.8	42.8	84	38.3	0	0	---	0.00	30.109 
04:35	42.6	42.6	42.6	84	38.1	0	0	---	0.00	30.109 
04:40	42.3	42.3	42.3	84	37.8	0	0	---	0.00	30.109 
04:45	42.2	42.2	42.2	84	37.7	0	0	---	0.00	30.112 
04:50	42.1	42.1	42.1	85	37.9	0	0	---	0.00	30.112 
04:55	41.9	41.9	41.9	85	37.7	0	0	---	0.00	30.112 
05:00	41.9	41.9	41.9	85	37.7	0	0	---	0.00	30.115 
05:05	41.8	41.8	41.8	86	37.9	0	0	---	0.00	30.115 
05:10	41.9	41.9	41.9	86	38.0	0	1	270	0.00	30.115 
05:15	41.9	41.9	41.9	86	38.0	0	0	---	0.00	30.114 
05:20	42.1	42.1	42.1	86	38.2	0	1	270	0.00	30.114 
05:25	42.2	42.2	42.2	86	38.3	0	1	270	0.00	30.114 
05:30	42.2	42.2	42.2	86	38.3	0	0	---	0.00	30.106 
05:35	42.2	42.2	42.2	86	38.3	0	1	270	0.00	30.106 
05:40	42.2	42.2	42.2	86	38.3	0	1	270	0.00	30.106 
05:45	42.3	42.3	42.3	86	38.4	0	1	270	0.00	30.107 
05:50	42.2	42.2	42.2	86	38.3	0	1	270	0.00	30.107 
05:55	42.2	42.2	42.2	86	38.3	0	1	270	0.00	30.107 
06:00	42.2	42.2	42.2	86	38.3	0	0	---	0.00	30.122 
06:05	42.2	42.2	42.2	86	38.3	0	1	270	0.00	30.122 
06:10	42.1	42.1	42.1	86	38.2	0	0	---	0.00	30.122 
06:15	42.1	42.1	42.1	86	38.2	0	0	---	0.00	30.132 
06:20	41.9	41.9	41.9	86	38.0	0	0	---	0.00	30.132 
06:25	41.8	41.8	41.8	86	37.9	0	0	---	0.00	30.132 
06:30	41.8	41.8	41.8	86	37.9	0	0	---	0.00	30.125 
06:35	41.6	41.6	41.6	87	38.0	0	1	270	0.00	30.125 
06:40	41.6	41.6	41.6	87	38.0	0	0	---	0.00	30.125 
06:45	41.5	41.5	41.5	87	37.9	0	0	---	0.00	30.130 
06:50	41.5	41.5	41.5	87	37.9	0	0	---	0.00	30.130 
06:55	41.6	41.6	41.6	87	38.0	0	1	270	0.00	30.130 
07:00	41.6	41.6	41.6	87	38.0	0	0	---	0.00	30.139 
07:05	41.6	41.6	41.6	87	38.0	0	1	270	0.00	30.139 
07:10	41.6	41.6	41.6	87	38.0	0	1	270	0.00	30.139 
07:15	41.6	41.6	41.6	87	38.0	0	1	270	0.00	30.147 
07:20	41.6	41.6	41.6	87	38.0	0	1	270	0.00	30.147 
07:25	41.6	41.6	41.6	87	38.0	0	1	270	0.00	30.147 
07:30	41.8	41.8	41.8	88	38.5	0	1	270	0.00	30.153 
07:35	41.8	41.8	41.8	88	38.5	0	1	270	0.00	30.153 
07:40	41.8	41.8	41.8	88	38.5	0	1	270	0.00	30.153 
07:45	41.8	41.8	41.8	88	38.5	0	1	270	0.00	30.149 
07:50	41.8	41.8	41.8	88	38.5	0	1	270	0.00	30.149 
07:55	41.9	41.9	41.9	88	38.6	0	2	270	0.00	30.149 
08:00	42.2	42.2	42.2	88	38.9	0	1	270	0.00	30.147 
08:05	42.3	42.3	42.3	87	38.7	0	1	270	0.00	30.147 
08:10	42.5	42.5	42.5	87	38.9	0	0	---	0.00	30.147 
08:15	42.8	42.8	42.8	87	39.2	0	0	---	0.00	30.152 
08:20	42.9	42.9	42.9	87	39.3	0	0	---	0.00	30.152 
08:25	43.2	43.2	43.2	86	39.3	0	3	270	0.00	30.152 
08:30	43.5	43.5	43.5	86	39.6	0	1	270	0.00	30.151 
08:35	43.8	43.8	43.8	85	39.6	1	3	270	0.00	30.151 
08:40	44.2	44.2	44.2	84	39.7	0	2	270	0.00	30.151 
08:45	44.5	44.5	44.5	84	40.0	1	2	270	0.00	30.151 
08:50	44.9	44.9	44.9	83	40.1	0	1	22	0.00	30.151 
08:55	45.4	45.4	45.4	82	40.2	0	1	22	0.00	30.151 
09:00	45.7	45.7	45.7	82	40.5	0	1	22	0.00	30.146 
09:05	46.2	46.2	46.2	81	40.7	0	1	22	0.00	30.146 
09:10	46.5	46.5	46.5	80	40.7	0	2	22	0.00	30.146 
09:15	47.0	47.0	47.0	80	41.2	0	1	0	0.00	30.153 
09:20	47.1	47.1	47.1	79	40.9	0	1	315	0.00	30.153 
09:25	47.4	47.4	47.4	79	41.2	0	1	315	0.00	30.153 
09:30	47.9	47.9	47.9	78	41.4	0	1	315	0.00	30.158 
09:35	48.3	48.3	48.3	78	41.8	0	1	315	0.00	30.158 
09:40	48.9	48.9	48.9	76	41.7	0	1	315	0.00	30.158 
09:45	49.6	49.6	49.6	75	42.0	0	3	270	0.00	30.151 
09:50	50.5	50.5	50.5	75	42.9	0	1	270	0.00	30.151 
09:55	51.1	51.1	51.1	72	42.4	1	4	270	0.00	30.151 
10:00	51.4	51.4	51.4	70	41.9	0	4	270	0.00	30.154 
10:05	52.3	52.3	52.3	70	42.8	0	1	270	0.00	30.154 
10:10	53.2	53.2	53.2	69	43.3	1	3	270	0.00	30.154 
10:15	53.9	53.9	53.9	66	42.8	1	3	270	0.00	30.150 
10:20	54.5	54.5	54.5	65	43.0	1	5	292	0.00	30.150 
10:25	55.1	55.1	55.1	64	43.1	0	2	292	0.00	30.150 
10:30	55.6	55.6	55.6	62	42.8	1	3	292	0.00	30.156 
10:35	56.0	56.0	56.0	62	43.2	0	2	292	0.00	30.156 
10:40	56.3	56.3	56.3	61	43.0	1	4	292	0.00	30.156 
10:45	56.6	56.6	56.6	60	42.9	2	4	270	0.00	30.154 
10:50	56.9	56.9	56.9	60	43.2	1	3	315	0.00	30.154 
10:55	57.2	57.2	57.2	60	43.4	1	4	315	0.00	30.154 
11:00	57.2	57.2	57.2	58	42.6	2	5	292	0.00	30.159 
11:05	57.2	57.2	57.2	58	42.6	2	3	315	0.00	30.159 
11:10	57.3	57.3	57.3	58	42.6	1	3	315	0.00	30.159 
11:15	57.5	57.5	57.5	58	42.8	2	4	270	0.00	30.155 
11:20	57.8	57.8	57.8	59	43.6	1	3	292	0.00	30.155 
11:25	58.1	58.1	58.1	57	42.9	1	4	292	0.00	30.155 
11:30	58.6	58.6	58.6	57	43.4	2	5	270	0.00	30.150 
11:35	59.2	59.2	59.2	56	43.5	1	3	270	0.00	30.150 
11:40	59.8	59.8	59.8	52	42.1	2	5	270	0.00	30.150 
11:45	60.1	60.1	60.1	50	41.4	3	6	270	0.00	30.143 
11:50	60.5	60.5	60.5	46	39.6	3	6	292	0.00	30.143 
11:55	61.0	61.0	61.0	44	38.9	2	5	270	0.00	30.143 
12:00	61.3	61.3	61.3	47	40.9	1	4	338	0.00	30.138 
12:05	61.8	61.8	61.8	44	39.7	2	7	292	0.00	30.138 
12:10	62.1	62.1	62.1	46	41.1	1	3	315	0.00	30.138 
12:15	62.7	62.7	62.7	45	41.0	1	4	315	0.00	30.133 
12:20	62.9	62.9	62.9	42	39.5	2	4	292	0.00	30.133 
12:25	63.2	63.2	63.2	41	39.1	2	5	292	0.00	30.133 
12:30	63.7	63.7	63.7	41	39.6	1	4	315	0.00	30.131 
12:35	63.9	63.9	63.9	38	37.8	2	5	292	0.00	30.131 
12:40	64.2	64.2	64.2	39	38.7	2	4	315	0.00	30.131 
12:45	64.5	64.5	64.5	36	36.9	2	6	338	0.00	30.131 
12:50	64.7	64.7	64.7	34	35.7	2	5	292	0.00	30.131 
12:55	64.8	64.8	64.8	34	35.8	2	4	315	0.00	30.131 
13:00	64.8	64.8	64.8	35	36.5	2	6	292	0.00	30.132 
13:05	65.2	65.2	65.2	36	37.6	1	3	338	0.00	30.132 
13:10	65.3	65.3	65.3	34	36.2	2	5	292	0.00	30.132 
13:15	65.3	65.3	65.3	35	36.9	2	6	338	0.00	30.136 
13:20	65.3	65.3	65.3	36	37.7	1	4	315	0.00	30.136 
13:25	65.5	65.5	65.5	35	37.1	2	5	292	0.00	30.136 
13:30	65.6	65.6	65.6	35	37.2	2	5	292	0.00	30.127 
13:35	65.8	65.8	65.8	37	38.8	2	7	315	0.00	30.127 
13:40	66.0	66.0	66.0	37	39.0	2	5	270	0.00	30.127 
13:45	66.0	66.0	66.0	36	38.3	2	4	292	0.00	30.128 
13:50	66.1	66.1	66.1	33	36.2	2	6	292	0.00	30.128 
13:55	66.4	66.4	66.4	34	37.2	1	4	292	0.00	30.128 
14:00	66.4	66.4	66.4	34	37.2	1	5	315	0.00	30.125 
14:05	66.8	66.8	66.8	35	38.3	1	5	338	0.00	30.125 
14:10	66.9	66.9	66.9	35	38.4	1	4	315	0.00	30.125 
14:15	67.1	67.1	67.1	31	35.4	1	3	315	0.00	30.126 
14:20	67.1	67.1	67.1	33	37.0	1	5	292	0.00	30.126 
14:25	66.9	66.9	66.9	34	37.6	1	3	338	0.00	30.126 
14:30	67.1	67.1	67.1	34	37.8	1	6	338	0.00	30.120 
14:35	67.3	67.3	67.3	32	36.4	2	5	270	0.00	30.120 
14:40	67.4	67.4	67.4	32	36.5	1	4	270	0.00	30.120 
14:45	67.8	67.8	67.8	32	36.9	1	4	292	0.00	30.119 
14:50	67.9	67.9	67.9	32	36.9	1	3	315	0.00	30.119 
14:55	67.8	67.8	67.8	31	36.1	2	5	292	0.00	30.119 
15:00	67.8	67.8	67.8	31	36.1	1	5	338	0.00	30.120 
15:05	67.6	67.6	67.6	30	35.1	1	5	270	0.00	30.120 
15:10	67.8	67.8	67.8	29	34.4	1	3	270	0.00	30.120 
15:15	67.8	67.8	67.8	31	36.1	1	4	270	0.00	30.119 
15:20	67.9	67.9	67.9	30	35.3	2	6	270	0.00	30.119 
15:25	68.1	68.1	68.1	30	35.5	1	5	338	0.00	30.119 
15:30	68.1	68.1	68.1	29	34.6	0	3	338	0.00	30.117 
15:35	68.1	68.1	68.1	29	34.6	2	4	292	0.00	30.117 
15:40	68.3	68.3	68.3	30	35.7	1	3	292	0.00	30.117 
15:45	68.4	68.4	68.4	29	34.9	2	4	270	0.00	30.111 
15:50	68.6	68.6	68.6	29	35.1	1	4	270	0.00	30.111 
15:55	68.8	68.8	68.8	29	35.2	1	3	22	0.00	30.111 
16:00	68.8	68.8	68.8	28	34.4	2	6	292	0.00	30.113 
16:05	68.6	68.6	68.6	31	36.8	1	3	270	0.00	30.113 
16:10	68.6	68.6	68.6	28	34.2	2	4	292	0.00	30.113 
16:15	68.6	68.6	68.6	28	34.2	1	4	338	0.00	30.114 
16:20	68.6	68.6	68.6	28	34.2	1	4	292	0.00	30.114 
16:25	68.8	68.8	68.8	29	35.2	1	3	292	0.00	30.114 
16:30	68.8	68.8	68.8	31	36.9	1	3	248	0.00	30.118 
16:35	68.6	68.6	68.6	29	35.1	1	3	338	0.00	30.118 
16:40	68.6	68.6	68.6	30	35.9	0	3	315	0.00	30.118 
16:45	68.6	68.6	68.6	29	35.1	0	2	315	0.00	30.118 
16:50	68.6	68.6	68.6	27	33.3	1	4	292	0.00	30.118 
16:55	68.6	68.6	68.6	29	35.1	0	2	292	0.00	30.118 
17:00	68.4	68.4	68.4	27	33.1	1	3	292	0.00	30.120 
17:05	68.4	68.4	68.4	27	33.1	1	3	292	0.00	30.120 
17:10	68.4	68.4	68.4	28	34.0	1	3	338	0.00	30.120 
17:15	68.6	68.6	68.6	28	34.2	0	3	270	0.00	30.122 
17:20	68.4	68.4	68.4	29	34.9	0	1	270	0.00	30.122 
17:25	68.4	68.4	68.4	30	35.7	0	2	270	0.00	30.122 
17:30	68.4	68.4	68.4	29	34.9	1	4	315	0.00	30.123 
17:35	68.6	68.6	68.6	30	35.9	0	3	315	0.00	30.123 
17:40	68.6	68.6	68.6	31	36.8	0	1	315	0.00	30.123 
17:45	68.4	68.4	68.4	31	36.6	0	2	315	0.00	30.123 
17:50	68.4	68.4	68.4	30	35.7	1	3	315	0.00	30.123 
17:55	68.4	68.4	68.4	28	34.0	1	3	292	0.00	30.123 
18:00	68.3	68.3	68.3	27	33.0	1	4	292	0.00	30.126 
18:05	68.1	68.1	68.1	28	33.8	0	2	292	0.00	30.126 
18:10	67.9	67.9	67.9	29	34.5	0	1	292	0.00	30.126 
18:15	67.8	67.8	67.8	31	36.1	0	1	292	0.00	30.128 
18:20	67.4	67.4	67.4	29	34.0	0	1	292	0.00	30.128 
18:25	67.3	67.3	67.3	31	35.6	0	1	292	0.00	30.128 
18:30	67.1	67.1	67.1	33	37.0	0	1	292	0.00	30.136 
18:35	66.8	66.8	66.8	33	36.8	0	1	292	0.00	30.136 
18:40	66.4	66.4	66.4	33	36.4	0	1	292	0.00	30.136 
18:45	66.3	66.3	66.3	34	37.1	0	1	292	0.00	30.132 
18:50	66.1	66.1	66.1	34	36.9	0	1	292	0.00	30.132 
18:55	66.0	66.0	66.0	34	36.8	0	1	292	0.00	30.132 
19:00	65.8	65.8	65.8	36	38.1	0	0	---	0.00	30.133 
19:05	65.3	65.3	65.3	39	39.7	0	0	---	0.00	30.133 
19:10	64.8	64.8	64.8	40	39.9	0	0	---	0.00	30.133 
19:15	64.2	64.2	64.2	41	40.0	0	0	---	0.00	30.141 
19:20	63.4	63.4	63.4	43	40.5	0	0	---	0.00	30.141 
19:25	62.7	62.7	62.7	45	41.0	0	0	---	0.00	30.141 
19:30	62.1	62.1	62.1	46	41.1	0	0	---	0.00	30.144 
19:35	61.5	61.5	61.5	47	41.1	0	0	---	0.00	30.144 
19:40	60.7	60.7	60.7	48	40.9	0	0	---	0.00	30.144 
19:45	60.1	60.1	60.1	49	40.9	0	0	---	0.00	30.156 
19:50	59.5	59.5	59.5	51	41.4	0	0	---	0.00	30.156 
19:55	58.7	58.7	58.7	51	40.6	0	0	---	0.00	30.156 
20:00	58.1	58.1	58.1	53	41.1	0	0	---	0.00	30.161 
20:05	57.5	57.5	57.5	54	41.0	0	0	---	0.00	30.161 
20:10	56.9	56.9	56.9	57	41.8	0	0	---	0.00	30.161 
20:15	56.3	56.3	56.3	58	41.7	0	0	---	0.00	30.169 
20:20	55.9	55.9	55.9	61	42.6	0	0	---	0.00	30.169 
20:25	55.4	55.4	55.4	62	42.6	0	0	---	0.00	30.169 
20:30	55.0	55.0	55.0	62	42.2	0	0	---	0.00	30.176 
20:35	54.5	54.5	54.5	63	42.2	0	0	---	0.00	30.176 
20:40	54.1	54.1	54.1	64	42.2	0	0	---	0.00	30.176 
20:45	53.6	53.6	53.6	66	42.5	0	0	---	0.00	30.179 
20:50	53.3	53.3	53.3	67	42.6	0	0	---	0.00	30.179 
20:55	53.2	53.2	53.2	68	42.9	0	0	---	0.00	30.179 
21:00	52.9	52.9	52.9	69	43.0	0	0	---	0.00	30.183 
21:05	52.8	52.8	52.8	70	43.3	0	0	---	0.00	30.183 
21:10	52.5	52.5	52.5	71	43.4	0	0	---	0.00	30.183 
21:15	52.2	52.2	52.2	71	43.1	0	0	---	0.00	30.183 
21:20	51.9	51.9	51.9	71	42.8	0	0	---	0.00	30.183 
21:25	51.6	51.6	51.6	73	43.2	0	0	---	0.00	30.183 
21:30	51.4	51.4	51.4	73	43.0	0	0	---	0.00	30.188 
21:35	51.1	51.1	51.1	74	43.1	0	0	---	0.00	30.188 
21:40	50.8	50.8	50.8	74	42.8	0	0	---	0.00	30.188 
21:45	50.7	50.7	50.7	75	43.1	0	0	---	0.00	30.192 
21:50	50.4	50.4	50.4	76	43.1	0	0	---	0.00	30.192 
21:55	50.2	50.2	50.2	77	43.3	0	0	---	0.00	30.192 
22:00	50.1	50.1	50.1	77	43.2	0	0	---	0.00	30.195 
22:05	50.1	50.1	50.1	78	43.5	0	0	---	0.00	30.195 
22:10	49.8	49.8	49.8	78	43.2	0	0	---	0.00	30.195 
22:15	49.6	49.6	49.6	78	43.0	0	0	---	0.00	30.192 
22:20	49.4	49.4	49.4	79	43.2	0	0	---	0.00	30.192 
22:25	49.2	49.2	49.2	78	42.6	0	0	---	0.00	30.192 
22:30	49.1	49.1	49.1	78	42.5	0	0	---	0.00	30.192 
22:35	48.8	48.8	48.8	78	42.2	0	0	---	0.00	30.192 
22:40	48.8	48.8	48.8	79	42.6	0	0	---	0.00	30.192 
22:45	48.6	48.6	48.6	79	42.4	0	0	---	0.00	30.201 
22:50	48.5	48.5	48.5	80	42.6	0	0	---	0.00	30.201 
22:55	48.5	48.5	48.5	80	42.6	0	0	---	0.00	30.201 
23:00	48.5	48.5	48.5	79	42.3	0	0	---	0.00	30.205 
23:05	48.5	48.5	48.5	79	42.3	0	0	---	0.00	30.205 
23:10	48.3	48.3	48.3	79	42.1	0	0	---	0.00	30.205 
23:15	48.2	48.2	48.2	78	41.7	0	0	---	0.00	30.201 
23:20	48.0	48.0	48.0	78	41.5	0	0	---	0.00	30.201 
23:25	47.9	47.9	47.9	77	41.0	0	0	---	0.00	30.201 
23:30	47.7	47.7	47.7	78	41.2	0	0	---	0.00	30.199 
23:35	47.7	47.7	47.7	78	41.2	0	0	---	0.00	30.199 
23:40	47.7	47.7	47.7	78	41.2	0	0	---	0.00	30.199 
23:45	47.7	47.7	47.7	78	41.2	0	0	---	0.00	30.200 
23:50	47.6	47.6	47.6	78	41.1	0	0	---	0.00	30.200 
23:55	47.6	47.6	47.6	78	41.1	0	0	---	0.00	30.200 

CoCoRaHS
IN-AL-39
A2 Web Hosting
Creative Commons License
GoDaddy
search engine by freefind advanced

loaded 2018-11-15 05:58:56 • last modified 2010-11-18 10:43:29
Privacy PolicyDisclaimer
• wx.awcolley.com is powered by PmWiki v.2002016 •
• all content (unless otherwise noted) © 2018 A W Colley